New Leo — D5IU7 — position and weather

sailwx.info

Track history (hours):
 
Tides and Currents Weather Stations Pressure Air Temp Water Temp Dewpoint Dewpoint Depression Visibility Wind Speed Wind Dir Waves Ship Positions

New Leo

Last reported at 2018-Apr-21 11:37 UTC. Time now 2018-Apr-22 14:30 UTC.
Position N 36°19' E 014°51'.

Length 103 m; draft 7.3 m.

Type: Cargo ship. MMSI: 636016994.

Date/timePositionNaut miles runAvg speedWind from/ knotsBaromVisibWave heightAir tempDewpointWater temp
2018-Apr-21 11:37N 36°19' E 014°51'322.1
2018-Apr-21 11:28N 36°19' E 014°47'3 6.8
2018-Apr-21 11:00N 36°19' E 014°43'611.1
2018-Apr-21 10:30N 36°19' E 014°36'611.5
2018-Apr-21 10:00N 36°21' E 014°29'611.8
2018-Apr-21 09:30N 36°23' E 014°22'510.3
2018-Apr-21 09:00N 36°25' E 014°17'611.1
2018-Apr-21 08:30N 36°27' E 014°10'712.7
2018-Apr-21 07:59N 36°29' E 014°02'5 9.9
2018-Apr-21 07:29N 36°31' E 013°57'511.3
2018-Apr-21 07:00N 36°33' E 013°50'611.6
2018-Apr-21 06:30N 36°35' E 013°43'611.6
2018-Apr-21 06:00N 36°37' E 013°37'611.3
2018-Apr-21 05:30N 36°38' E 013°30'611.2
2018-Apr-21 05:01N 36°40' E 013°24'611.0
2018-Apr-21 04:29N 36°42' E 013°17'610.9
2018-Apr-21 03:59N 36°44' E 013°10'511.4
2018-Apr-21 03:30N 36°46' E 013°04'611.8
2018-Apr-21 03:00N 36°48' E 012°57'710.6
2018-Apr-21 02:22N 36°51' E 012°49'56011.0
2018-Apr-18 23:38N 36°46' E 001°10'810.4
2018-Apr-18 22:51N 36°45' E 001°01'1610.5
2018-Apr-18 21:20N 36°43' E 000°41'310.2
2018-Apr-18 21:01N 36°42' E 000°37'3910.5
2018-Apr-18 17:19N 36°34' W 000°10'710.8
2018-Apr-18 16:40N 36°33' W 000°19'1510.7
2018-Apr-18 15:17N 36°30' W 000°37'310.7
2018-Apr-18 15:00N 36°29' W 000°41'22211.5
2018-Apr-17 19:45N 35°56' W 005°12'310.4
2018-Apr-17 19:30N 35°56' W 005°15'3 5.9
2018-Apr-17 18:58N 35°54' W 005°18'0 0.0
2018-Apr-17 18:28N 35°54' W 005°18'0 0.0
2018-Apr-17 18:01N 35°54' W 005°18'0 0.0
2018-Apr-17 17:31N 35°54' W 005°18'0 0.0
2018-Apr-17 17:01N 35°54' W 005°18'0 0.0
2018-Apr-17 16:31N 35°54' W 005°18'0 0.0
2018-Apr-17 16:01N 35°54' W 005°18'0 0.0
2018-Apr-17 15:31N 35°54' W 005°18'290 6.4
2018-Apr-15 18:21N 38°50' W 010°07'411.8
2018-Apr-15 18:00N 38°54' W 010°07'711.9
2018-Apr-15 17:28N 39°00' W 010°07'511.8
2018-Apr-15 17:00N 39°06' W 010°07'  
2018-Apr-12 19:34N 49°52' W 003°10'711.2
2018-Apr-12 18:54N 49°56' W 003°00'410.7
2018-Apr-12 18:30N 49°58' W 002°55'610.5
2018-Apr-12 17:58N 49°59' W 002°46'510.1
2018-Apr-12 17:29N 50°01' W 002°39'510.1
2018-Apr-12 16:58N 50°02' W 002°31'510.1
2018-Apr-12 16:25N 50°03' W 002°23'810.4
2018-Apr-12 15:37N 50°05' W 002°10'210.7
2018-Apr-12 15:25N 50°06' W 002°07'511.1
2018-Apr-12 14:59N 50°07' W 001°60'611.7
2018-Apr-12 14:30N 50°09' W 001°51'612.3
2018-Apr-12 14:01N 50°10' W 001°42'712.9
2018-Apr-12 13:30N 50°12' W 001°32'713.4
2018-Apr-12 13:00N 50°14' W 001°22'713.8
2018-Apr-12 12:30N 50°16' W 001°12'714.1
2018-Apr-12 12:00N 50°18' W 001°01'713.7
2018-Apr-12 11:30N 50°20' W 000°51'713.4
2018-Apr-12 11:00N 50°22' W 000°41'613.2
2018-Apr-12 10:30N 50°23' W 000°31'712.8
2018-Apr-12 09:57N 50°25' W 000°20'512.3
2018-Apr-12 09:30N 50°27' W 000°12'611.8
2018-Apr-12 09:00N 50°28' W 000°03'611.4
2018-Apr-12 08:30N 50°30' E 000°06'610.8
2018-Apr-12 07:58N 50°31' E 000°14'510.5
2018-Apr-12 07:30N 50°32' E 000°22'510.3
2018-Apr-12 07:00N 50°34' E 000°30'510.2
2018-Apr-12 06:30N 50°35' E 000°38'510.6
2018-Apr-12 06:00N 50°38' E 000°45'510.8
2018-Apr-12 05:30N 50°41' E 000°52'611.3
2018-Apr-12 05:00N 50°44' E 000°59'611.6
2018-Apr-12 04:30N 50°47' E 001°06'2211.9
2018-Apr-12 02:41N 51°03' E 001°30'211.5
2018-Apr-12 02:30N 51°04' E 001°33'611.5
2018-Apr-12 02:00N 51°08' E 001°39'611.4
2018-Apr-12 01:30N 51°13' E 001°45'510.8
2018-Apr-12 01:00N 51°17' E 001°51'510.5
2018-Apr-12 00:30N 51°21' E 001°55'5 9.8
2018-Apr-12 00:00N 51°25' E 002°00'510.5
2018-Apr-11 23:30N 51°23' E 002°08'510.7
2018-Apr-11 23:00N 51°21' E 002°16'5 9.9
2018-Apr-11 22:30N 51°22' E 002°24'510.0
2018-Apr-11 21:58N 51°23' E 002°32'510.4
2018-Apr-11 21:30N 51°23' E 002°40'4 7.5
2018-Apr-11 20:59N 51°22' E 002°46'4 9.1
2018-Apr-11 20:30N 51°23' E 002°53'511.0
2018-Apr-11 20:00N 51°24' E 003°02'510.7
2018-Apr-11 19:30N 51°24' E 003°10'510.7
2018-Apr-11 19:00N 51°24' E 003°19'510.9
2018-Apr-11 18:30N 51°25' E 003°27'510.2
2018-Apr-11 18:00N 51°26' E 003°35'4 8.7
2018-Apr-11 17:30N 51°25' E 003°42'611.4
2018-Apr-11 17:00N 51°21' E 003°48'1 2.5
2018-Apr-11 16:30N 51°20' E 003°49'1 2.7
2018-Apr-11 16:00N 51°18' E 003°50'3 6.8
2018-Apr-11 15:30N 51°15' E 003°49'4 7.1
2018-Apr-11 15:00N 51°12' E 003°48'1 2.0
2018-Apr-11 14:29N 51°11' E 003°48'0 0.0
2018-Apr-11 13:59N 51°11' E 003°48'0 0.0
2018-Apr-11 13:26N 51°11' E 003°48'0 0.0
2018-Apr-11 12:59N 51°11' E 003°48'0 0.0
2018-Apr-11 12:29N 51°11' E 003°48'0 0.0
2018-Apr-11 11:59N 51°11' E 003°48'  
Track history (hours):
 
Tides and Currents Weather Stations Pressure Air Temp Water Temp Dewpoint Dewpoint Depression Visibility Wind Speed Wind Dir Waves Ship Positions

New Leo

Last reported at 2018-Apr-21 11:37 UTC. Time now 2018-Apr-22 14:30 UTC.
Position N 36°19' E 014°51'.

Length 103 m; draft 7.3 m.

Type: Cargo ship. MMSI: 636016994.

Date/timePositionNaut miles runAvg speedWind from/ knotsBaromVisibWave heightAir tempDewpointWater temp
2018-Apr-21 11:37N 36°19' E 014°51'322.1
2018-Apr-21 11:28N 36°19' E 014°47'3 6.8
2018-Apr-21 11:00N 36°19' E 014°43'611.1
2018-Apr-21 10:30N 36°19' E 014°36'611.5
2018-Apr-21 10:00N 36°21' E 014°29'611.8
2018-Apr-21 09:30N 36°23' E 014°22'510.3
2018-Apr-21 09:00N 36°25' E 014°17'611.1
2018-Apr-21 08:30N 36°27' E 014°10'712.7
2018-Apr-21 07:59N 36°29' E 014°02'5 9.9
2018-Apr-21 07:29N 36°31' E 013°57'511.3
2018-Apr-21 07:00N 36°33' E 013°50'611.6
2018-Apr-21 06:30N 36°35' E 013°43'611.6
2018-Apr-21 06:00N 36°37' E 013°37'611.3
2018-Apr-21 05:30N 36°38' E 013°30'611.2
2018-Apr-21 05:01N 36°40' E 013°24'611.0
2018-Apr-21 04:29N 36°42' E 013°17'610.9
2018-Apr-21 03:59N 36°44' E 013°10'511.4
2018-Apr-21 03:30N 36°46' E 013°04'611.8
2018-Apr-21 03:00N 36°48' E 012°57'710.6
2018-Apr-21 02:22N 36°51' E 012°49'56011.0
2018-Apr-18 23:38N 36°46' E 001°10'810.4
2018-Apr-18 22:51N 36°45' E 001°01'1610.5
2018-Apr-18 21:20N 36°43' E 000°41'310.2
2018-Apr-18 21:01N 36°42' E 000°37'3910.5
2018-Apr-18 17:19N 36°34' W 000°10'710.8
2018-Apr-18 16:40N 36°33' W 000°19'1510.7
2018-Apr-18 15:17N 36°30' W 000°37'310.7
2018-Apr-18 15:00N 36°29' W 000°41'22211.5
2018-Apr-17 19:45N 35°56' W 005°12'310.4
2018-Apr-17 19:30N 35°56' W 005°15'3 5.9
2018-Apr-17 18:58N 35°54' W 005°18'0 0.0
2018-Apr-17 18:28N 35°54' W 005°18'0 0.0
2018-Apr-17 18:01N 35°54' W 005°18'0 0.0
2018-Apr-17 17:31N 35°54' W 005°18'0 0.0
2018-Apr-17 17:01N 35°54' W 005°18'0 0.0
2018-Apr-17 16:31N 35°54' W 005°18'0 0.0
2018-Apr-17 16:01N 35°54' W 005°18'0 0.0
2018-Apr-17 15:31N 35°54' W 005°18'290 6.4
2018-Apr-15 18:21N 38°50' W 010°07'411.8
2018-Apr-15 18:00N 38°54' W 010°07'711.9
2018-Apr-15 17:28N 39°00' W 010°07'511.8
2018-Apr-15 17:00N 39°06' W 010°07'  
2018-Apr-12 19:34N 49°52' W 003°10'711.2
2018-Apr-12 18:54N 49°56' W 003°00'410.7
2018-Apr-12 18:30N 49°58' W 002°55'610.5
2018-Apr-12 17:58N 49°59' W 002°46'510.1
2018-Apr-12 17:29N 50°01' W 002°39'510.1
2018-Apr-12 16:58N 50°02' W 002°31'510.1
2018-Apr-12 16:25N 50°03' W 002°23'810.4
2018-Apr-12 15:37N 50°05' W 002°10'210.7
2018-Apr-12 15:25N 50°06' W 002°07'511.1
2018-Apr-12 14:59N 50°07' W 001°60'611.7
2018-Apr-12 14:30N 50°09' W 001°51'612.3
2018-Apr-12 14:01N 50°10' W 001°42'712.9
2018-Apr-12 13:30N 50°12' W 001°32'713.4
2018-Apr-12 13:00N 50°14' W 001°22'713.8
2018-Apr-12 12:30N 50°16' W 001°12'714.1
2018-Apr-12 12:00N 50°18' W 001°01'713.7
2018-Apr-12 11:30N 50°20' W 000°51'713.4
2018-Apr-12 11:00N 50°22' W 000°41'613.2
2018-Apr-12 10:30N 50°23' W 000°31'712.8
2018-Apr-12 09:57N 50°25' W 000°20'512.3
2018-Apr-12 09:30N 50°27' W 000°12'611.8
2018-Apr-12 09:00N 50°28' W 000°03'611.4
2018-Apr-12 08:30N 50°30' E 000°06'610.8
2018-Apr-12 07:58N 50°31' E 000°14'510.5
2018-Apr-12 07:30N 50°32' E 000°22'510.3
2018-Apr-12 07:00N 50°34' E 000°30'510.2
2018-Apr-12 06:30N 50°35' E 000°38'510.6
2018-Apr-12 06:00N 50°38' E 000°45'510.8
2018-Apr-12 05:30N 50°41' E 000°52'611.3
2018-Apr-12 05:00N 50°44' E 000°59'611.6
2018-Apr-12 04:30N 50°47' E 001°06'2211.9
2018-Apr-12 02:41N 51°03' E 001°30'211.5
2018-Apr-12 02:30N 51°04' E 001°33'611.5
2018-Apr-12 02:00N 51°08' E 001°39'611.4
2018-Apr-12 01:30N 51°13' E 001°45'510.8
2018-Apr-12 01:00N 51°17' E 001°51'510.5
2018-Apr-12 00:30N 51°21' E 001°55'5 9.8
2018-Apr-12 00:00N 51°25' E 002°00'510.5
2018-Apr-11 23:30N 51°23' E 002°08'510.7
2018-Apr-11 23:00N 51°21' E 002°16'5 9.9
2018-Apr-11 22:30N 51°22' E 002°24'510.0
2018-Apr-11 21:58N 51°23' E 002°32'510.4
2018-Apr-11 21:30N 51°23' E 002°40'4 7.5
2018-Apr-11 20:59N 51°22' E 002°46'4 9.1
2018-Apr-11 20:30N 51°23' E 002°53'511.0
2018-Apr-11 20:00N 51°24' E 003°02'510.7
2018-Apr-11 19:30N 51°24' E 003°10'510.7
2018-Apr-11 19:00N 51°24' E 003°19'510.9
2018-Apr-11 18:30N 51°25' E 003°27'510.2
2018-Apr-11 18:00N 51°26' E 003°35'4 8.7
2018-Apr-11 17:30N 51°25' E 003°42'611.4
2018-Apr-11 17:00N 51°21' E 003°48'1 2.5
2018-Apr-11 16:30N 51°20' E 003°49'1 2.7
2018-Apr-11 16:00N 51°18' E 003°50'3 6.8
2018-Apr-11 15:30N 51°15' E 003°49'4 7.1
2018-Apr-11 15:00N 51°12' E 003°48'1 2.0
2018-Apr-11 14:29N 51°11' E 003°48'0 0.0
2018-Apr-11 13:59N 51°11' E 003°48'0 0.0
2018-Apr-11 13:26N 51°11' E 003°48'0 0.0
2018-Apr-11 12:59N 51°11' E 003°48'0 0.0
2018-Apr-11 12:29N 51°11' E 003°48'0 0.0
2018-Apr-11 11:59N 51°11' E 003°48'  

Dump ship's entire track history